sensor_id;sensor_type;location;lat;lon;timestamp;P1;durP1;ratioP1;P2;durP2;ratioP2
75810;SDS011;64449;50.016;19.954;2023-09-19T00:00:33;11.50;;;7.50;;
75810;SDS011;64449;50.016;19.954;2023-09-19T00:02:59;8.60;;;7.00;;
75810;SDS011;64449;50.016;19.954;2023-09-19T00:05:25;11.60;;;7.50;;
75810;SDS011;64449;50.016;19.954;2023-09-19T00:07:53;9.80;;;7.00;;
75810;SDS011;64449;50.016;19.954;2023-09-19T00:10:19;11.20;;;8.40;;
75810;SDS011;64449;50.016;19.954;2023-09-19T00:12:50;11.90;;;7.30;;
75810;SDS011;64449;50.016;19.954;2023-09-19T00:15:23;9.60;;;7.50;;
75810;SDS011;64449;50.016;19.954;2023-09-19T00:17:51;10.60;;;7.60;;
75810;SDS011;64449;50.016;19.954;2023-09-19T00:20:17;10.40;;;7.50;;
75810;SDS011;64449;50.016;19.954;2023-09-19T00:22:43;11.10;;;7.70;;
75810;SDS011;64449;50.016;19.954;2023-09-19T00:25:09;9.80;;;7.10;;
75810;SDS011;64449;50.016;19.954;2023-09-19T00:27:37;15.10;;;7.40;;
75810;SDS011;64449;50.016;19.954;2023-09-19T00:30:07;10.90;;;8.00;;
75810;SDS011;64449;50.016;19.954;2023-09-19T00:32:39;10.00;;;7.90;;
75810;SDS011;64449;50.016;19.954;2023-09-19T00:35:05;11.90;;;7.50;;
75810;SDS011;64449;50.016;19.954;2023-09-19T00:37:32;9.70;;;7.40;;
75810;SDS011;64449;50.016;19.954;2023-09-19T00:39:58;11.60;;;8.00;;
75810;SDS011;64449;50.016;19.954;2023-09-19T00:42:23;12.10;;;7.10;;
75810;SDS011;64449;50.016;19.954;2023-09-19T00:44:50;11.10;;;7.20;;
75810;SDS011;64449;50.016;19.954;2023-09-19T00:47:16;10.70;;;8.00;;
75810;SDS011;64449;50.016;19.954;2023-09-19T00:49:43;11.70;;;7.80;;
75810;SDS011;64449;50.016;19.954;2023-09-19T00:52:10;11.30;;;8.40;;
75810;SDS011;64449;50.016;19.954;2023-09-19T00:54:37;13.90;;;8.30;;
75810;SDS011;64449;50.016;19.954;2023-09-19T00:57:02;14.50;;;7.80;;
75810;SDS011;64449;50.016;19.954;2023-09-19T00:59:28;11.10;;;8.50;;
75810;SDS011;64449;50.016;19.954;2023-09-19T01:01:55;10.00;;;7.10;;
75810;SDS011;64449;50.016;19.954;2023-09-19T01:04:21;14.00;;;7.40;;
75810;SDS011;64449;50.016;19.954;2023-09-19T01:06:47;10.60;;;7.40;;
75810;SDS011;64449;50.016;19.954;2023-09-19T01:09:18;9.70;;;7.00;;
75810;SDS011;64449;50.016;19.954;2023-09-19T01:11:45;11.00;;;6.70;;
75810;SDS011;64449;50.016;19.954;2023-09-19T01:14:29;12.80;;;7.40;;
75810;SDS011;64449;50.016;19.954;2023-09-19T01:17:14;11.40;;;6.80;;
75810;SDS011;64449;50.016;19.954;2023-09-19T01:22:44;12.80;;;7.30;;
75810;SDS011;64449;50.016;19.954;2023-09-19T01:25:19;10.20;;;7.00;;
75810;SDS011;64449;50.016;19.954;2023-09-19T01:31:12;10.80;;;7.40;;
75810;SDS011;64449;50.016;19.954;2023-09-19T01:33:55;11.20;;;6.90;;
75810;SDS011;64449;50.016;19.954;2023-09-19T01:36:22;10.20;;;7.30;;
75810;SDS011;64449;50.016;19.954;2023-09-19T01:38:49;11.00;;;7.60;;
75810;SDS011;64449;50.016;19.954;2023-09-19T01:41:17;10.70;;;6.80;;
75810;SDS011;64449;50.016;19.954;2023-09-19T01:43:50;9.40;;;6.70;;
75810;SDS011;64449;50.016;19.954;2023-09-19T01:46:19;11.30;;;8.40;;
75810;SDS011;64449;50.016;19.954;2023-09-19T01:48:58;9.10;;;7.20;;
75810;SDS011;64449;50.016;19.954;2023-09-19T01:54:51;10.10;;;7.40;;
75810;SDS011;64449;50.016;19.954;2023-09-19T01:59:50;8.60;;;6.70;;
75810;SDS011;64449;50.016;19.954;2023-09-19T02:02:19;11.40;;;8.30;;
75810;SDS011;64449;50.016;19.954;2023-09-19T02:04:48;8.40;;;6.80;;
75810;SDS011;64449;50.016;19.954;2023-09-19T02:07:14;14.00;;;7.20;;
75810;SDS011;64449;50.016;19.954;2023-09-19T02:09:40;11.00;;;7.90;;
75810;SDS011;64449;50.016;19.954;2023-09-19T02:12:08;8.90;;;6.40;;
75810;SDS011;64449;50.016;19.954;2023-09-19T02:14:34;8.00;;;6.50;;
75810;SDS011;64449;50.016;19.954;2023-09-19T02:17:01;9.70;;;7.10;;
75810;SDS011;64449;50.016;19.954;2023-09-19T02:19:30;11.50;;;7.40;;
75810;SDS011;64449;50.016;19.954;2023-09-19T02:21:57;8.90;;;6.60;;
75810;SDS011;64449;50.016;19.954;2023-09-19T02:24:22;12.90;;;9.60;;
75810;SDS011;64449;50.016;19.954;2023-09-19T02:26:49;11.00;;;7.20;;
75810;SDS011;64449;50.016;19.954;2023-09-19T02:29:14;12.50;;;8.40;;
75810;SDS011;64449;50.016;19.954;2023-09-19T02:31:40;8.80;;;6.70;;
75810;SDS011;64449;50.016;19.954;2023-09-19T02:34:05;9.20;;;8.20;;
75810;SDS011;64449;50.016;19.954;2023-09-19T02:36:32;10.60;;;8.10;;
75810;SDS011;64449;50.016;19.954;2023-09-19T02:38:57;9.20;;;7.00;;
75810;SDS011;64449;50.016;19.954;2023-09-19T02:41:22;16.80;;;12.60;;
75810;SDS011;64449;50.016;19.954;2023-09-19T02:43:48;13.60;;;9.40;;
75810;SDS011;64449;50.016;19.954;2023-09-19T02:46:13;11.40;;;8.80;;
75810;SDS011;64449;50.016;19.954;2023-09-19T02:48:39;12.50;;;9.20;;
75810;SDS011;64449;50.016;19.954;2023-09-19T02:51:04;11.70;;;9.00;;
75810;SDS011;64449;50.016;19.954;2023-09-19T02:53:30;10.70;;;7.90;;
75810;SDS011;64449;50.016;19.954;2023-09-19T02:55:56;10.80;;;8.10;;
75810;SDS011;64449;50.016;19.954;2023-09-19T02:58:22;10.20;;;8.10;;
75810;SDS011;64449;50.016;19.954;2023-09-19T03:00:48;10.00;;;7.90;;
75810;SDS011;64449;50.016;19.954;2023-09-19T03:03:16;9.90;;;8.10;;
75810;SDS011;64449;50.016;19.954;2023-09-19T03:05:41;15.50;;;9.70;;
75810;SDS011;64449;50.016;19.954;2023-09-19T03:08:15;11.50;;;8.10;;
75810;SDS011;64449;50.016;19.954;2023-09-19T03:10:40;11.30;;;8.30;;
75810;SDS011;64449;50.016;19.954;2023-09-19T03:13:06;9.50;;;7.40;;
75810;SDS011;64449;50.016;19.954;2023-09-19T03:15:34;12.60;;;8.80;;
75810;SDS011;64449;50.016;19.954;2023-09-19T03:18:03;12.50;;;8.50;;
75810;SDS011;64449;50.016;19.954;2023-09-19T03:20:29;13.10;;;8.40;;
75810;SDS011;64449;50.016;19.954;2023-09-19T03:22:55;10.40;;;7.80;;
75810;SDS011;64449;50.016;19.954;2023-09-19T03:25:20;12.50;;;8.90;;
75810;SDS011;64449;50.016;19.954;2023-09-19T03:27:48;12.20;;;8.20;;
75810;SDS011;64449;50.016;19.954;2023-09-19T03:30:13;11.10;;;8.70;;
75810;SDS011;64449;50.016;19.954;2023-09-19T03:32:45;11.90;;;8.40;;
75810;SDS011;64449;50.016;19.954;2023-09-19T03:35:11;12.00;;;9.20;;
75810;SDS011;64449;50.016;19.954;2023-09-19T03:37:39;11.50;;;8.80;;
75810;SDS011;64449;50.016;19.954;2023-09-19T03:40:05;12.40;;;9.20;;
75810;SDS011;64449;50.016;19.954;2023-09-19T03:42:32;14.00;;;9.00;;
75810;SDS011;64449;50.016;19.954;2023-09-19T03:44:57;14.00;;;9.30;;
75810;SDS011;64449;50.016;19.954;2023-09-19T03:47:24;11.90;;;8.80;;
75810;SDS011;64449;50.016;19.954;2023-09-19T03:49:49;11.40;;;8.80;;
75810;SDS011;64449;50.016;19.954;2023-09-19T03:52:14;12.60;;;8.50;;
75810;SDS011;64449;50.016;19.954;2023-09-19T03:54:42;14.10;;;8.90;;
75810;SDS011;64449;50.016;19.954;2023-09-19T03:57:08;12.60;;;9.20;;
75810;SDS011;64449;50.016;19.954;2023-09-19T03:59:34;13.40;;;9.40;;
75810;SDS011;64449;50.016;19.954;2023-09-19T04:02:00;14.50;;;10.50;;
75810;SDS011;64449;50.016;19.954;2023-09-19T04:04:27;14.80;;;9.50;;
75810;SDS011;64449;50.016;19.954;2023-09-19T04:06:54;14.00;;;10.00;;
75810;SDS011;64449;50.016;19.954;2023-09-19T04:09:19;16.60;;;10.70;;
75810;SDS011;64449;50.016;19.954;2023-09-19T04:11:45;12.50;;;9.60;;
75810;SDS011;64449;50.016;19.954;2023-09-19T04:14:10;13.50;;;9.70;;
75810;SDS011;64449;50.016;19.954;2023-09-19T04:16:36;13.20;;;9.40;;
75810;SDS011;64449;50.016;19.954;2023-09-19T04:19:01;13.20;;;8.60;;
75810;SDS011;64449;50.016;19.954;2023-09-19T04:21:28;12.80;;;10.00;;
75810;SDS011;64449;50.016;19.954;2023-09-19T04:23:54;14.80;;;10.20;;
75810;SDS011;64449;50.016;19.954;2023-09-19T04:26:19;11.60;;;9.00;;
75810;SDS011;64449;50.016;19.954;2023-09-19T04:28:44;12.40;;;9.60;;
75810;SDS011;64449;50.016;19.954;2023-09-19T04:31:11;12.30;;;10.00;;
75810;SDS011;64449;50.016;19.954;2023-09-19T04:33:36;14.10;;;10.50;;
75810;SDS011;64449;50.016;19.954;2023-09-19T04:36:02;13.50;;;9.90;;
75810;SDS011;64449;50.016;19.954;2023-09-19T04:38:30;15.30;;;10.40;;
75810;SDS011;64449;50.016;19.954;2023-09-19T04:40:58;15.30;;;10.30;;
75810;SDS011;64449;50.016;19.954;2023-09-19T04:43:24;17.20;;;11.40;;
75810;SDS011;64449;50.016;19.954;2023-09-19T04:45:49;15.80;;;10.80;;
75810;SDS011;64449;50.016;19.954;2023-09-19T04:48:15;13.30;;;10.30;;
75810;SDS011;64449;50.016;19.954;2023-09-19T04:50:41;13.10;;;9.90;;
75810;SDS011;64449;50.016;19.954;2023-09-19T04:53:06;14.80;;;9.40;;
75810;SDS011;64449;50.016;19.954;2023-09-19T04:55:32;14.70;;;10.50;;
75810;SDS011;64449;50.016;19.954;2023-09-19T04:57:58;15.20;;;10.50;;
75810;SDS011;64449;50.016;19.954;2023-09-19T05:00:23;16.00;;;10.80;;
75810;SDS011;64449;50.016;19.954;2023-09-19T05:02:52;13.30;;;10.50;;
75810;SDS011;64449;50.016;19.954;2023-09-19T05:05:21;15.40;;;11.00;;
75810;SDS011;64449;50.016;19.954;2023-09-19T05:07:47;16.30;;;11.60;;
75810;SDS011;64449;50.016;19.954;2023-09-19T05:10:13;14.50;;;10.20;;
75810;SDS011;64449;50.016;19.954;2023-09-19T05:12:39;15.00;;;11.70;;
75810;SDS011;64449;50.016;19.954;2023-09-19T05:15:06;17.20;;;11.30;;
75810;SDS011;64449;50.016;19.954;2023-09-19T05:17:32;18.00;;;10.90;;
75810;SDS011;64449;50.016;19.954;2023-09-19T05:19:59;15.80;;;11.50;;
75810;SDS011;64449;50.016;19.954;2023-09-19T05:22:36;15.10;;;11.90;;
75810;SDS011;64449;50.016;19.954;2023-09-19T05:25:04;16.70;;;13.00;;
75810;SDS011;64449;50.016;19.954;2023-09-19T05:27:30;15.10;;;10.60;;
75810;SDS011;64449;50.016;19.954;2023-09-19T05:29:56;19.30;;;12.50;;
75810;SDS011;64449;50.016;19.954;2023-09-19T05:32:21;14.50;;;11.50;;
75810;SDS011;64449;50.016;19.954;2023-09-19T05:34:47;18.40;;;10.70;;
75810;SDS011;64449;50.016;19.954;2023-09-19T05:37:13;19.70;;;11.30;;
75810;SDS011;64449;50.016;19.954;2023-09-19T05:39:41;17.30;;;12.50;;
75810;SDS011;64449;50.016;19.954;2023-09-19T05:42:06;15.90;;;11.40;;
75810;SDS011;64449;50.016;19.954;2023-09-19T05:44:33;20.20;;;11.90;;
75810;SDS011;64449;50.016;19.954;2023-09-19T05:46:58;15.30;;;11.30;;
75810;SDS011;64449;50.016;19.954;2023-09-19T05:49:23;16.70;;;12.30;;
75810;SDS011;64449;50.016;19.954;2023-09-19T05:51:49;16.40;;;10.90;;
75810;SDS011;64449;50.016;19.954;2023-09-19T05:54:18;17.40;;;12.00;;
75810;SDS011;64449;50.016;19.954;2023-09-19T05:56:45;16.50;;;10.60;;
75810;SDS011;64449;50.016;19.954;2023-09-19T05:59:12;13.40;;;10.00;;
75810;SDS011;64449;50.016;19.954;2023-09-19T06:01:38;16.50;;;12.10;;
75810;SDS011;64449;50.016;19.954;2023-09-19T06:04:04;16.60;;;10.70;;
75810;SDS011;64449;50.016;19.954;2023-09-19T06:06:29;14.00;;;10.70;;
75810;SDS011;64449;50.016;19.954;2023-09-19T06:08:55;17.20;;;12.20;;
75810;SDS011;64449;50.016;19.954;2023-09-19T06:11:20;15.90;;;11.70;;
75810;SDS011;64449;50.016;19.954;2023-09-19T06:13:46;13.70;;;9.80;;
75810;SDS011;64449;50.016;19.954;2023-09-19T06:16:12;17.40;;;10.50;;
75810;SDS011;64449;50.016;19.954;2023-09-19T06:18:38;15.70;;;10.20;;
75810;SDS011;64449;50.016;19.954;2023-09-19T06:21:03;14.50;;;10.90;;
75810;SDS011;64449;50.016;19.954;2023-09-19T06:23:32;12.90;;;10.10;;
75810;SDS011;64449;50.016;19.954;2023-09-19T06:25:59;19.10;;;13.60;;
75810;SDS011;64449;50.016;19.954;2023-09-19T06:28:24;19.50;;;14.80;;
75810;SDS011;64449;50.016;19.954;2023-09-19T06:30:53;18.80;;;12.60;;
75810;SDS011;64449;50.016;19.954;2023-09-19T06:33:19;17.60;;;10.60;;
75810;SDS011;64449;50.016;19.954;2023-09-19T06:35:46;12.90;;;10.20;;
75810;SDS011;64449;50.016;19.954;2023-09-19T06:38:12;11.10;;;7.70;;
75810;SDS011;64449;50.016;19.954;2023-09-19T06:40:38;14.90;;;11.40;;
75810;SDS011;64449;50.016;19.954;2023-09-19T06:43:04;23.20;;;15.90;;
75810;SDS011;64449;50.016;19.954;2023-09-19T06:45:30;14.30;;;9.70;;
75810;SDS011;64449;50.016;19.954;2023-09-19T06:47:57;14.70;;;10.70;;
75810;SDS011;64449;50.016;19.954;2023-09-19T06:50:23;14.00;;;10.10;;
75810;SDS011;64449;50.016;19.954;2023-09-19T06:52:49;15.10;;;10.30;;
75810;SDS011;64449;50.016;19.954;2023-09-19T06:55:16;12.50;;;9.70;;
75810;SDS011;64449;50.016;19.954;2023-09-19T06:57:45;12.80;;;9.30;;
75810;SDS011;64449;50.016;19.954;2023-09-19T07:00:13;16.80;;;12.20;;
75810;SDS011;64449;50.016;19.954;2023-09-19T07:03:00;15.10;;;11.40;;
75810;SDS011;64449;50.016;19.954;2023-09-19T07:05:29;13.70;;;10.10;;
75810;SDS011;64449;50.016;19.954;2023-09-19T07:08:01;15.00;;;10.10;;
75810;SDS011;64449;50.016;19.954;2023-09-19T07:10:27;16.90;;;11.10;;
75810;SDS011;64449;50.016;19.954;2023-09-19T07:12:59;15.20;;;10.70;;
75810;SDS011;64449;50.016;19.954;2023-09-19T07:15:26;13.00;;;8.80;;
75810;SDS011;64449;50.016;19.954;2023-09-19T07:17:53;13.50;;;10.00;;
75810;SDS011;64449;50.016;19.954;2023-09-19T07:20:19;13.60;;;9.50;;
75810;SDS011;64449;50.016;19.954;2023-09-19T07:22:45;14.70;;;10.50;;
75810;SDS011;64449;50.016;19.954;2023-09-19T07:25:12;14.90;;;9.50;;
75810;SDS011;64449;50.016;19.954;2023-09-19T07:27:39;15.70;;;9.70;;
75810;SDS011;64449;50.016;19.954;2023-09-19T07:30:06;14.60;;;8.90;;
75810;SDS011;64449;50.016;19.954;2023-09-19T07:32:33;15.50;;;9.70;;
75810;SDS011;64449;50.016;19.954;2023-09-19T07:35:00;13.90;;;9.70;;
75810;SDS011;64449;50.016;19.954;2023-09-19T07:37:25;14.50;;;9.90;;
75810;SDS011;64449;50.016;19.954;2023-09-19T07:39:50;17.10;;;10.10;;
75810;SDS011;64449;50.016;19.954;2023-09-19T07:42:16;12.90;;;9.60;;
75810;SDS011;64449;50.016;19.954;2023-09-19T07:44:43;14.70;;;10.60;;
75810;SDS011;64449;50.016;19.954;2023-09-19T07:47:12;14.90;;;9.30;;
75810;SDS011;64449;50.016;19.954;2023-09-19T07:49:38;13.30;;;9.90;;
75810;SDS011;64449;50.016;19.954;2023-09-19T07:52:04;16.60;;;11.00;;
75810;SDS011;64449;50.016;19.954;2023-09-19T07:54:29;15.00;;;10.90;;
75810;SDS011;64449;50.016;19.954;2023-09-19T07:59:25;13.50;;;8.90;;
75810;SDS011;64449;50.016;19.954;2023-09-19T08:01:51;12.30;;;8.70;;
75810;SDS011;64449;50.016;19.954;2023-09-19T08:04:17;9.40;;;7.20;;
75810;SDS011;64449;50.016;19.954;2023-09-19T08:06:44;8.80;;;5.90;;
75810;SDS011;64449;50.016;19.954;2023-09-19T08:09:10;8.90;;;5.70;;
75810;SDS011;64449;50.016;19.954;2023-09-19T08:11:36;6.40;;;4.50;;
75810;SDS011;64449;50.016;19.954;2023-09-19T08:14:02;8.20;;;5.70;;
75810;SDS011;64449;50.016;19.954;2023-09-19T08:16:27;7.90;;;4.90;;
75810;SDS011;64449;50.016;19.954;2023-09-19T08:18:53;6.30;;;3.60;;
75810;SDS011;64449;50.016;19.954;2023-09-19T08:21:20;6.30;;;4.30;;
75810;SDS011;64449;50.016;19.954;2023-09-19T08:23:46;6.30;;;4.00;;
75810;SDS011;64449;50.016;19.954;2023-09-19T08:26:11;5.10;;;3.20;;
75810;SDS011;64449;50.016;19.954;2023-09-19T08:28:37;4.80;;;2.80;;
75810;SDS011;64449;50.016;19.954;2023-09-19T08:31:05;4.30;;;2.80;;
75810;SDS011;64449;50.016;19.954;2023-09-19T08:33:32;5.10;;;3.50;;
75810;SDS011;64449;50.016;19.954;2023-09-19T08:35:58;3.60;;;2.50;;
75810;SDS011;64449;50.016;19.954;2023-09-19T08:38:24;6.00;;;3.50;;
75810;SDS011;64449;50.016;19.954;2023-09-19T08:40:56;4.70;;;2.70;;
75810;SDS011;64449;50.016;19.954;2023-09-19T08:43:22;6.20;;;3.00;;
75810;SDS011;64449;50.016;19.954;2023-09-19T08:45:49;7.30;;;4.30;;
75810;SDS011;64449;50.016;19.954;2023-09-19T08:48:16;5.10;;;3.60;;
75810;SDS011;64449;50.016;19.954;2023-09-19T08:56:25;5.00;;;3.20;;
75810;SDS011;64449;50.016;19.954;2023-09-19T08:58:59;5.60;;;3.60;;
75810;SDS011;64449;50.016;19.954;2023-09-19T09:01:27;4.10;;;2.60;;
75810;SDS011;64449;50.016;19.954;2023-09-19T09:03:54;4.70;;;2.70;;
75810;SDS011;64449;50.016;19.954;2023-09-19T09:06:20;6.10;;;3.20;;
75810;SDS011;64449;50.016;19.954;2023-09-19T09:08:46;3.70;;;2.40;;
75810;SDS011;64449;50.016;19.954;2023-09-19T09:11:13;7.00;;;3.50;;
75810;SDS011;64449;50.016;19.954;2023-09-19T09:13:40;6.50;;;2.90;;
75810;SDS011;64449;50.016;19.954;2023-09-19T09:16:06;4.20;;;3.10;;
75810;SDS011;64449;50.016;19.954;2023-09-19T09:18:32;5.80;;;3.20;;
75810;SDS011;64449;50.016;19.954;2023-09-19T09:20:58;6.90;;;3.00;;
75810;SDS011;64449;50.016;19.954;2023-09-19T09:23:23;6.10;;;3.10;;
75810;SDS011;64449;50.016;19.954;2023-09-19T09:25:54;4.90;;;2.90;;
75810;SDS011;64449;50.016;19.954;2023-09-19T09:28:22;6.90;;;3.80;;
75810;SDS011;64449;50.016;19.954;2023-09-19T09:30:48;6.80;;;3.80;;
75810;SDS011;64449;50.016;19.954;2023-09-19T09:33:15;6.70;;;3.30;;
75810;SDS011;64449;50.016;19.954;2023-09-19T09:36:00;5.90;;;3.40;;
75810;SDS011;64449;50.016;19.954;2023-09-19T09:38:28;7.20;;;3.90;;
75810;SDS011;64449;50.016;19.954;2023-09-19T09:40:56;8.30;;;3.60;;
75810;SDS011;64449;50.016;19.954;2023-09-19T09:43:32;6.00;;;3.80;;
75810;SDS011;64449;50.016;19.954;2023-09-19T09:48:45;8.10;;;2.70;;
75810;SDS011;64449;50.016;19.954;2023-09-19T09:51:31;5.60;;;3.00;;
75810;SDS011;64449;50.016;19.954;2023-09-19T09:54:17;5.30;;;3.50;;
75810;SDS011;64449;50.016;19.954;2023-09-19T09:59:42;5.30;;;3.20;;
75810;SDS011;64449;50.016;19.954;2023-09-19T10:02:12;5.80;;;3.40;;
75810;SDS011;64449;50.016;19.954;2023-09-19T10:04:39;7.80;;;3.90;;
75810;SDS011;64449;50.016;19.954;2023-09-19T10:07:50;6.00;;;3.50;;
75810;SDS011;64449;50.016;19.954;2023-09-19T10:10:28;6.80;;;3.50;;
75810;SDS011;64449;50.016;19.954;2023-09-19T10:13:02;4.60;;;2.90;;
75810;SDS011;64449;50.016;19.954;2023-09-19T10:15:29;5.90;;;3.00;;
75810;SDS011;64449;50.016;19.954;2023-09-19T10:17:57;8.00;;;2.90;;
75810;SDS011;64449;50.016;19.954;2023-09-19T10:20:26;6.10;;;3.70;;
75810;SDS011;64449;50.016;19.954;2023-09-19T10:23:04;6.50;;;3.90;;
75810;SDS011;64449;50.016;19.954;2023-09-19T10:25:36;7.80;;;3.10;;
75810;SDS011;64449;50.016;19.954;2023-09-19T10:28:03;5.70;;;3.00;;
75810;SDS011;64449;50.016;19.954;2023-09-19T10:30:36;4.80;;;3.40;;
75810;SDS011;64449;50.016;19.954;2023-09-19T10:33:05;4.00;;;2.60;;
75810;SDS011;64449;50.016;19.954;2023-09-19T10:35:31;4.70;;;2.90;;
75810;SDS011;64449;50.016;19.954;2023-09-19T10:37:59;5.40;;;3.20;;
75810;SDS011;64449;50.016;19.954;2023-09-19T10:40:28;6.50;;;3.10;;
75810;SDS011;64449;50.016;19.954;2023-09-19T10:43:01;6.90;;;2.90;;
75810;SDS011;64449;50.016;19.954;2023-09-19T10:45:32;5.40;;;3.90;;
75810;SDS011;64449;50.016;19.954;2023-09-19T10:47:59;8.00;;;4.40;;
75810;SDS011;64449;50.016;19.954;2023-09-19T10:50:26;4.50;;;2.80;;
75810;SDS011;64449;50.016;19.954;2023-09-19T10:52:56;4.60;;;2.90;;
75810;SDS011;64449;50.016;19.954;2023-09-19T10:55:29;5.10;;;3.20;;
75810;SDS011;64449;50.016;19.954;2023-09-19T10:57:56;7.30;;;3.50;;
75810;SDS011;64449;50.016;19.954;2023-09-19T11:00:51;4.70;;;3.20;;
75810;SDS011;64449;50.016;19.954;2023-09-19T11:03:21;7.10;;;3.40;;
75810;SDS011;64449;50.016;19.954;2023-09-19T11:06:03;6.70;;;3.40;;
75810;SDS011;64449;50.016;19.954;2023-09-19T11:28:28;5.20;;;2.90;;
75810;SDS011;64449;50.016;19.954;2023-09-19T11:30:48;4.50;;;3.40;;
75810;SDS011;64449;50.016;19.954;2023-09-19T11:36:16;7.00;;;3.50;;
75810;SDS011;64449;50.016;19.954;2023-09-19T11:43:52;5.00;;;2.70;;
75810;SDS011;64449;50.016;19.954;2023-09-19T11:46:24;4.30;;;2.60;;
75810;SDS011;64449;50.016;19.954;2023-09-19T11:48:50;5.20;;;3.50;;
75810;SDS011;64449;50.016;19.954;2023-09-19T11:51:22;5.70;;;2.90;;
75810;SDS011;64449;50.016;19.954;2023-09-19T11:53:58;5.90;;;2.90;;
75810;SDS011;64449;50.016;19.954;2023-09-19T11:56:27;6.00;;;3.90;;
75810;SDS011;64449;50.016;19.954;2023-09-19T11:58:54;8.10;;;4.60;;
75810;SDS011;64449;50.016;19.954;2023-09-19T12:01:24;6.70;;;3.70;;
75810;SDS011;64449;50.016;19.954;2023-09-19T12:03:58;5.10;;;3.30;;
75810;SDS011;64449;50.016;19.954;2023-09-19T12:06:25;6.00;;;2.90;;
75810;SDS011;64449;50.016;19.954;2023-09-19T12:08:51;7.10;;;4.10;;
75810;SDS011;64449;50.016;19.954;2023-09-19T12:11:19;4.90;;;2.60;;
75810;SDS011;64449;50.016;19.954;2023-09-19T12:13:46;5.70;;;3.60;;
75810;SDS011;64449;50.016;19.954;2023-09-19T12:16:17;7.50;;;3.70;;
75810;SDS011;64449;50.016;19.954;2023-09-19T12:18:47;6.30;;;2.70;;
75810;SDS011;64449;50.016;19.954;2023-09-19T12:21:21;6.50;;;3.40;;
75810;SDS011;64449;50.016;19.954;2023-09-19T12:26:30;6.80;;;3.80;;
75810;SDS011;64449;50.016;19.954;2023-09-19T12:29:03;4.70;;;2.80;;
75810;SDS011;64449;50.016;19.954;2023-09-19T12:31:30;3.60;;;2.00;;
75810;SDS011;64449;50.016;19.954;2023-09-19T12:34:01;5.20;;;2.50;;
75810;SDS011;64449;50.016;19.954;2023-09-19T12:36:27;4.90;;;3.30;;
75810;SDS011;64449;50.016;19.954;2023-09-19T12:38:58;6.20;;;3.60;;
75810;SDS011;64449;50.016;19.954;2023-09-19T12:41:24;6.20;;;3.20;;
75810;SDS011;64449;50.016;19.954;2023-09-19T12:43:51;6.30;;;3.60;;
75810;SDS011;64449;50.016;19.954;2023-09-19T12:46:21;4.50;;;3.40;;
75810;SDS011;64449;50.016;19.954;2023-09-19T12:51:47;5.60;;;2.50;;
75810;SDS011;64449;50.016;19.954;2023-09-19T12:54:13;5.10;;;2.90;;
75810;SDS011;64449;50.016;19.954;2023-09-19T12:56:45;5.00;;;2.40;;
75810;SDS011;64449;50.016;19.954;2023-09-19T12:59:13;5.50;;;3.40;;
75810;SDS011;64449;50.016;19.954;2023-09-19T13:01:40;7.10;;;3.80;;
75810;SDS011;64449;50.016;19.954;2023-09-19T13:04:18;6.40;;;3.00;;
75810;SDS011;64449;50.016;19.954;2023-09-19T13:06:48;5.40;;;3.70;;
75810;SDS011;64449;50.016;19.954;2023-09-19T13:09:19;5.60;;;3.60;;
75810;SDS011;64449;50.016;19.954;2023-09-19T13:11:45;6.40;;;4.10;;
75810;SDS011;64449;50.016;19.954;2023-09-19T13:17:00;4.90;;;3.80;;
75810;SDS011;64449;50.016;19.954;2023-09-19T13:19:49;7.50;;;4.20;;
75810;SDS011;64449;50.016;19.954;2023-09-19T13:25:05;7.40;;;4.40;;
75810;SDS011;64449;50.016;19.954;2023-09-19T13:27:33;6.50;;;3.80;;
75810;SDS011;64449;50.016;19.954;2023-09-19T13:29:59;4.40;;;2.50;;
75810;SDS011;64449;50.016;19.954;2023-09-19T13:32:25;8.20;;;4.30;;
75810;SDS011;64449;50.016;19.954;2023-09-19T13:34:50;6.10;;;4.10;;
75810;SDS011;64449;50.016;19.954;2023-09-19T13:37:16;5.60;;;3.80;;
75810;SDS011;64449;50.016;19.954;2023-09-19T13:39:43;7.50;;;4.30;;
75810;SDS011;64449;50.016;19.954;2023-09-19T13:42:12;6.70;;;4.40;;
75810;SDS011;64449;50.016;19.954;2023-09-19T13:44:38;6.40;;;4.00;;
75810;SDS011;64449;50.016;19.954;2023-09-19T13:47:06;6.30;;;4.10;;
75810;SDS011;64449;50.016;19.954;2023-09-19T13:49:35;6.20;;;3.50;;
75810;SDS011;64449;50.016;19.954;2023-09-19T13:52:01;7.40;;;4.20;;
75810;SDS011;64449;50.016;19.954;2023-09-19T13:54:28;8.00;;;4.80;;
75810;SDS011;64449;50.016;19.954;2023-09-19T13:56:54;6.60;;;4.50;;
75810;SDS011;64449;50.016;19.954;2023-09-19T13:59:20;7.10;;;4.10;;
75810;SDS011;64449;50.016;19.954;2023-09-19T14:01:46;7.70;;;4.90;;
75810;SDS011;64449;50.016;19.954;2023-09-19T14:04:11;6.10;;;4.00;;
75810;SDS011;64449;50.016;19.954;2023-09-19T14:06:37;6.90;;;4.10;;
75810;SDS011;64449;50.016;19.954;2023-09-19T14:09:02;6.10;;;4.10;;
75810;SDS011;64449;50.016;19.954;2023-09-19T14:11:29;6.40;;;4.20;;
75810;SDS011;64449;50.016;19.954;2023-09-19T14:13:54;7.10;;;3.90;;
75810;SDS011;64449;50.016;19.954;2023-09-19T14:16:19;6.60;;;4.30;;
75810;SDS011;64449;50.016;19.954;2023-09-19T14:18:47;5.90;;;3.60;;
75810;SDS011;64449;50.016;19.954;2023-09-19T14:21:13;6.10;;;4.40;;
75810;SDS011;64449;50.016;19.954;2023-09-19T14:23:40;7.30;;;5.10;;
75810;SDS011;64449;50.016;19.954;2023-09-19T14:26:07;5.70;;;4.40;;
75810;SDS011;64449;50.016;19.954;2023-09-19T14:28:34;6.30;;;4.20;;
75810;SDS011;64449;50.016;19.954;2023-09-19T14:31:06;5.80;;;4.20;;
75810;SDS011;64449;50.016;19.954;2023-09-19T14:33:32;6.20;;;4.20;;
75810;SDS011;64449;50.016;19.954;2023-09-19T14:35:58;5.60;;;4.30;;
75810;SDS011;64449;50.016;19.954;2023-09-19T14:38:23;8.90;;;5.90;;
75810;SDS011;64449;50.016;19.954;2023-09-19T14:40:48;7.60;;;4.50;;
75810;SDS011;64449;50.016;19.954;2023-09-19T14:43:23;6.60;;;4.40;;
75810;SDS011;64449;50.016;19.954;2023-09-19T14:45:48;6.90;;;4.30;;
75810;SDS011;64449;50.016;19.954;2023-09-19T14:48:14;8.60;;;5.20;;
75810;SDS011;64449;50.016;19.954;2023-09-19T14:50:39;8.10;;;5.10;;
75810;SDS011;64449;50.016;19.954;2023-09-19T14:53:04;5.10;;;4.10;;
75810;SDS011;64449;50.016;19.954;2023-09-19T14:55:36;6.90;;;5.00;;
75810;SDS011;64449;50.016;19.954;2023-09-19T14:58:02;6.40;;;5.30;;
75810;SDS011;64449;50.016;19.954;2023-09-19T15:00:28;10.50;;;8.50;;
75810;SDS011;64449;50.016;19.954;2023-09-19T15:02:53;7.60;;;5.80;;
75810;SDS011;64449;50.016;19.954;2023-09-19T15:05:20;11.00;;;7.60;;
75810;SDS011;64449;50.016;19.954;2023-09-19T15:07:45;8.00;;;5.20;;
75810;SDS011;64449;50.016;19.954;2023-09-19T15:10:10;7.20;;;4.90;;
75810;SDS011;64449;50.016;19.954;2023-09-19T15:12:38;8.80;;;5.20;;
75810;SDS011;64449;50.016;19.954;2023-09-19T15:15:05;11.20;;;9.30;;
75810;SDS011;64449;50.016;19.954;2023-09-19T15:17:34;9.20;;;5.60;;
75810;SDS011;64449;50.016;19.954;2023-09-19T15:20:01;6.00;;;4.00;;
75810;SDS011;64449;50.016;19.954;2023-09-19T15:22:27;4.90;;;3.50;;
75810;SDS011;64449;50.016;19.954;2023-09-19T15:24:52;5.60;;;3.90;;
75810;SDS011;64449;50.016;19.954;2023-09-19T15:27:18;5.80;;;3.60;;
75810;SDS011;64449;50.016;19.954;2023-09-19T15:29:45;13.20;;;5.20;;
75810;SDS011;64449;50.016;19.954;2023-09-19T15:32:11;6.00;;;4.60;;
75810;SDS011;64449;50.016;19.954;2023-09-19T15:34:36;7.60;;;5.00;;